Time;durP1;ratioP1;P1;durP2;ratioP2;P2;SDS_P1;SDS_P2;PMS_P1;PMS_P2;Temp;Humidity;BMP_temperature;BMP_pressure;BME280_temperature;BME280_humidity;BME280_pressure;Samples;Min_cycle;Max_cycle;Signal;HPM_P1;HPM_P2
2023/03/24 00:02:41;;;;;;;14.07;7.18;;;;;;;2.78;63.74;97022.25;6319080;28;20102;-67
2023/03/24 00:05:53;;;;;;;11.00;7.32;;;;;;;2.74;64.30;97026.69;6320575;28;20032;-66
2023/03/24 00:08:59;;;;;;;11.10;7.32;;;;;;;2.79;64.04;97023.94;6320683;28;20073;-67
2023/03/24 00:12:03;;;;;;;12.05;7.07;;;;;;;2.78;63.98;97022.25;6320583;28;20043;-67
2023/03/24 00:15:08;;;;;;;;;;;;;;;2.74;63.97;97025.84;6320818;28;20035;-67
2023/03/24 00:18:13;;;;;;;13.65;7.43;;;;;;;2.71;63.98;97016.38;6320329;28;20327;-67
2023/03/24 00:21:23;;;;;;;12.23;7.50;;;;;;;2.62;64.28;97029.66;6319106;28;20085;-67
2023/03/24 00:24:28;;;;;;;9.95;7.10;;;;;;;2.50;64.87;97017.91;6318756;28;20509;-66
2023/03/24 00:27:36;;;;;;;10.73;7.07;;;;;;;2.53;64.55;97033.41;6320708;28;20111;-67
2023/03/24 00:30:50;;;;;;;10.63;7.45;;;;;;;2.60;64.41;97019.31;6320108;28;20040;-67
2023/03/24 00:33:54;;;;;;;11.80;7.07;;;;;;;2.62;64.57;97022.72;6319920;28;20474;-67
2023/03/24 00:36:57;;;;;;;;;;;;;;;2.57;64.38;97023.75;6320292;28;20058;-67
2023/03/24 00:40:07;;;;;;;11.20;7.70;;;;;;;2.59;64.86;97025.41;6319850;28;20057;-67
2023/03/24 00:43:22;;;;;;;11.63;6.82;;;;;;;2.83;64.47;97016.03;6319737;28;20501;-67
2023/03/24 00:46:27;;;;;;;11.68;6.93;;;;;;;2.90;63.93;97016.66;6319702;28;20416;-66
2023/03/24 00:49:46;;;;;;;;;;;;;;;2.69;64.01;97019.06;6318833;28;20501;-67
2023/03/24 00:52:52;;;;;;;10.77;6.47;;;;;;;2.69;65.02;97019.06;6319563;28;20011;-67
2023/03/24 00:55:58;;;;;;;12.20;7.25;;;;;;;2.53;65.15;97017.81;6319147;28;20052;-67
2023/03/24 00:59:03;;;;;;;10.63;7.30;;;;;;;2.70;65.18;97023.34;6317784;28;20050;-68
2023/03/24 01:02:10;;;;;;;;;;;;;;;2.59;65.41;97021.97;6319820;28;20036;-67
2023/03/24 01:05:19;;;;;;;13.15;7.50;;;;;;;2.46;66.08;97011.97;6319388;28;19927;-67
2023/03/24 01:08:24;;;;;;;13.60;6.90;;;;;;;2.39;66.60;97012.19;6319381;28;20494;-67
2023/03/24 01:11:33;;;;;;;7.68;6.00;;;;;;;2.51;66.67;97011.81;6319189;28;20044;-68
2023/03/24 01:14:38;;;;;;;13.00;7.18;;;;;;;2.52;66.65;97016.13;6319222;28;20040;-66
2023/03/24 01:17:45;;;;;;;13.13;7.50;;;;;;;2.37;66.99;97020.00;6318025;28;20104;-66
2023/03/24 01:20:51;;;;;;;9.90;6.90;;;;;;;2.43;67.07;97014.63;6319388;28;20643;-66
2023/03/24 01:23:56;;;;;;;13.52;6.95;;;;;;;2.53;66.95;97023.00;6319379;28;20859;-67
2023/03/24 01:27:01;;;;;;;10.73;6.63;;;;;;;2.32;67.28;97023.63;6319317;28;20089;-67
2023/03/24 01:30:05;;;;;;;9.82;6.15;;;;;;;2.40;67.67;97024.25;6318944;28;20495;-68
2023/03/24 01:33:08;;;;;;;;;;;;;;;2.22;67.49;97018.72;6319345;28;20563;-66
2023/03/24 01:36:13;;;;;;;12.57;8.02;;;;;;;2.25;67.48;97018.63;6319038;28;20061;-66
2023/03/24 01:39:18;;;;;;;11.68;7.95;;;;;;;2.25;67.97;97013.44;6319098;28;20574;-67
2023/03/24 01:42:27;;;;;;;11.18;5.93;;;;;;;2.29;67.95;97013.34;6319058;28;20421;-66
2023/03/24 01:45:48;;;;;;;7.45;5.22;;;;;;;2.22;68.29;97007.50;6318812;28;20075;-67
2023/03/24 01:49:05;;;;;;;10.18;5.80;;;;;;;2.13;68.60;97013.81;6318833;28;20040;-67
2023/03/24 01:52:18;;;;;;;13.20;7.70;;;;;;;2.18;68.12;97017.13;6318729;28;20079;-66
2023/03/24 01:55:24;;;;;;;11.90;6.78;;;;;;;2.18;68.48;97013.66;6318692;28;20056;-67
2023/03/24 01:58:33;;;;;;;16.05;7.00;;;;;;;2.29;68.00;97015.94;6317262;28;20047;-67
2023/03/24 02:01:38;;;;;;;10.35;6.35;;;;;;;2.23;68.14;97020.41;6319056;28;20039;-66
2023/03/24 02:04:47;;;;;;;13.15;6.57;;;;;;;2.04;69.21;97014.09;6318658;28;20087;-66
2023/03/24 02:08:03;;;;;;;10.98;6.15;;;;;;;2.13;69.28;97019.00;6318537;28;20564;-67
2023/03/24 02:11:09;;;;;;;8.15;5.28;;;;;;;2.09;69.35;97017.38;6321301;28;20044;-67
2023/03/24 02:14:14;;;;;;;10.00;6.80;;;;;;;2.19;68.96;97018.81;6323190;28;20100;-67
2023/03/24 02:17:33;;;;;;;8.80;5.85;;;;;;;2.22;68.81;97018.72;6323153;28;20047;-67
2023/03/24 02:21:02;;;;;;;15.02;7.78;;;;;;;2.24;68.91;97011.75;6323142;28;20086;-67
2023/03/24 02:24:20;;;;;;;17.17;10.23;;;;;;;2.21;68.96;97022.22;6322913;28;20055;-67
2023/03/24 02:27:42;;;;;;;27.23;14.32;;;;;;;2.19;69.40;97018.81;6322042;28;20040;-67
2023/03/24 02:31:05;;;;;;;29.50;13.50;;;;;;;2.22;69.70;97018.72;6322843;28;20055;-67
2023/03/24 02:34:39;;;;;;;20.05;10.60;;;;;;;2.32;69.64;97023.63;6322502;28;20040;-68
2023/03/24 02:38:13;;;;;;;27.00;14.35;;;;;;;2.44;69.66;97033.69;6322621;28;20089;-66
2023/03/24 02:41:46;;;;;;;23.13;12.10;;;;;;;2.47;69.90;97036.19;6322579;28;20044;-66
2023/03/24 02:45:08;;;;;;;20.17;9.23;;;;;;;2.74;70.10;97047.47;6322541;28;20058;-67
2023/03/24 02:48:30;;;;;;;16.63;8.68;;;;;;;2.97;69.71;97044.13;6321358;28;20174;-68
2023/03/24 02:52:05;;;;;;;22.33;8.95;;;;;;;3.15;69.64;97042.72;6322282;28;20489;-67
2023/03/24 02:55:30;;;;;;;23.00;10.25;;;;;;;3.31;69.24;97050.84;6321938;28;20109;-68
2023/03/24 02:58:51;;;;;;;20.23;11.18;;;;;;;3.47;68.52;97053.81;6321758;28;20148;-66
2023/03/24 03:02:05;;;;;;;15.93;8.55;;;;;;;3.52;68.21;97052.75;6322002;28;20497;-66
2023/03/24 03:05:18;;;;;;;12.63;7.10;;;;;;;3.62;67.68;97055.03;6321967;28;20060;-67
2023/03/24 03:08:25;;;;;;;10.52;6.78;;;;;;;3.70;67.22;97053.00;6321901;28;20128;-67
2023/03/24 03:11:29;;;;;;;10.60;6.30;;;;;;;3.77;66.78;97059.72;6321716;28;20081;-67
2023/03/24 03:14:53;;;;;;;12.35;7.10;;;;;;;3.81;66.92;97059.53;6321715;28;20523;-67
2023/03/24 03:18:16;;;;;;;13.48;6.15;;;;;;;4.12;67.40;97057.59;6321666;28;20105;-67
2023/03/24 03:21:22;;;;;;;22.80;8.88;;;;;;;4.29;67.54;97050.03;6321417;28;20328;-68
2023/03/24 03:24:33;;;;;;;22.85;8.60;;;;;;;4.61;67.02;97051.41;6320242;28;20048;-67
2023/03/24 03:27:40;;;;;;;12.02;6.45;;;;;;;4.83;66.74;97047.97;6321379;28;20036;-67
2023/03/24 03:30:51;;;;;;;15.60;7.57;;;;;;;5.00;66.28;97061.19;6321260;28;20051;-67
2023/03/24 03:34:17;;;;;;;14.38;7.55;;;;;;;5.12;65.66;97067.69;6321064;28;20051;-67
2023/03/24 03:37:44;;;;;;;12.57;6.35;;;;;;;5.19;65.23;97063.94;6321188;28;20036;-68
2023/03/24 03:40:58;;;;;;;12.95;6.50;;;;;;;5.21;65.17;97062.13;6321087;28;20405;-67
2023/03/24 03:44:02;;;;;;;12.50;6.40;;;;;;;5.33;64.72;97061.59;6320906;28;20466;-68
2023/03/24 03:47:07;;;;;;;14.15;6.50;;;;;;;5.25;64.48;97062.84;6320933;28;20044;-67
2023/03/24 03:50:11;;;;;;;13.52;6.68;;;;;;;5.29;63.82;97065.22;6321099;28;20485;-67
2023/03/24 03:53:16;;;;;;;;;;;;;;;5.22;64.14;97062.97;6321162;28;20054;-68
2023/03/24 03:56:28;;;;;;;11.48;5.82;;;;;;;5.26;64.46;97065.38;6320672;28;20023;-67
2023/03/24 03:59:36;;;;;;;14.55;6.55;;;;;;;5.31;63.92;97052.97;6319516;28;20114;-67
2023/03/24 04:02:49;;;;;;;13.77;6.97;;;;;;;5.36;63.69;97055.41;6320439;28;20436;-67
2023/03/24 04:06:01;;;;;;;14.32;7.03;;;;;;;5.44;63.69;97062.94;6320489;28;20039;-67
2023/03/24 04:09:36;;;;;;;14.40;6.85;;;;;;;5.61;63.37;97060.47;6320968;28;20044;-67
2023/03/24 04:13:08;;;;;;;15.95;7.35;;;;;;;5.81;63.00;97065.69;6320363;28;20132;-68
2023/03/24 04:16:31;;;;;;;13.80;6.85;;;;;;;5.83;62.61;97061.25;6320340;28;20069;-67
2023/03/24 04:19:55;;;;;;;10.90;6.00;;;;;;;5.93;62.40;97076.53;6320487;28;20036;-67
2023/03/24 04:23:31;;;;;;;12.20;6.85;;;;;;;6.24;61.64;97076.06;6319944;28;20077;-67
2023/03/24 04:27:01;;;;;;;12.85;5.82;;;;;;;6.46;60.58;97070.72;6302580;28;20402;-68
2023/03/24 04:30:14;;;;;;;11.25;5.72;;;;;;;6.62;60.46;97076.94;6289588;28;20047;-67
2023/03/24 04:33:39;;;;;;;9.10;4.53;;;;;;;6.70;59.70;97077.44;6319278;28;20533;-67
2023/03/24 04:36:49;;;;;;;10.70;5.38;;;;;;;6.77;59.43;97085.03;6319945;28;20088;-68
2023/03/24 04:39:57;;;;;;;8.18;5.70;;;;;;;6.71;59.93;97089.63;6320131;28;20046;-68
2023/03/24 04:43:07;;;;;;;7.63;5.10;;;;;;;6.86;59.30;97084.59;6318485;28;20119;-67
2023/03/24 04:46:16;;;;;;;12.52;5.90;;;;;;;7.10;58.45;97083.41;6319713;28;20046;-67
2023/03/24 04:49:24;;;;;;;9.60;5.03;;;;;;;7.38;57.95;97076.84;6319651;28;20043;-67
2023/03/24 04:52:29;;;;;;;8.18;4.85;;;;;;;7.62;56.71;97080.91;6319526;28;20140;-67
2023/03/24 04:56:00;;;;;;;19.10;7.00;;;;;;;7.86;56.51;97076.19;6319171;28;20143;-68
2023/03/24 04:59:05;;;;;;;9.85;5.10;;;;;;;8.20;55.51;97078.84;6319451;28;20144;-67
2023/03/24 05:02:11;;;;;;;7.15;4.70;;;;;;;8.52;54.76;97077.19;6319349;28;20032;-67
2023/03/24 05:05:14;;;;;;;9.60;5.55;;;;;;;8.83;53.81;97080.78;6319669;28;20417;-67
2023/03/24 05:08:18;;;;;;;;;;;;;;;9.25;52.82;97077.56;6319770;28;20494;-67
2023/03/24 05:11:24;;;;;;;11.68;5.75;;;;;;;9.42;52.13;97069.56;6319297;28;20053;-67
2023/03/24 05:14:29;;;;;;;8.25;4.65;;;;;;;9.61;50.92;97071.16;6319687;28;20447;-68
2023/03/24 05:17:32;;;;;;;;;;;;;;;9.70;51.34;97078.50;6319817;28;20047;-67
2023/03/24 05:20:37;;;;;;;13.45;4.60;;;;;;;9.54;50.92;97068.03;6319543;28;20008;-68
2023/03/24 05:23:42;;;;;;;8.05;3.92;;;;;;;9.36;51.43;97063.81;6319555;28;20425;-68
2023/03/24 05:26:46;;;;;;;9.57;4.93;;;;;;;9.33;52.03;97072.72;6319147;28;20134;-67
2023/03/24 05:29:50;;;;;;;;;;;;;;;9.76;50.82;97067.63;6318038;28;20040;-67
2023/03/24 05:32:54;;;;;;;10.38;4.85;;;;;;;9.51;51.14;97072.59;6318793;28;20057;-68
2023/03/24 05:35:57;;;;;;;;;;;;;;;9.82;50.98;97075.16;6319311;28;20089;-67
2023/03/24 05:39:01;;;;;;;13.15;4.85;;;;;;;9.95;50.50;97074.44;6318898;28;20321;-67
2023/03/24 05:42:06;;;;;;;12.55;5.18;;;;;;;10.49;49.93;97077.34;6318821;28;20556;-67
2023/03/24 05:45:11;;;;;;;7.10;3.95;;;;;;;12.40;46.68;97076.38;6318840;28;20047;-67
2023/03/24 05:48:15;;;;;;;15.43;4.95;;;;;;;14.34;42.76;97082.53;6323753;28;20489;-69
2023/03/24 05:51:20;;;;;;;10.90;4.85;;;;;;;14.66;40.95;97074.78;6323625;28;20044;-68
2023/03/24 05:54:25;;;;;;;11.13;4.80;;;;;;;15.30;39.24;97078.59;6323056;28;20192;-68
2023/03/24 05:57:29;;;;;;;10.27;4.28;;;;;;;16.78;37.38;97076.81;6323851;28;20528;-67
2023/03/24 06:00:34;;;;;;;8.82;4.15;;;;;;;18.69;34.19;97067.59;6323396;28;20070;-68
2023/03/24 06:03:39;;;;;;;11.85;5.50;;;;;;;20.34;31.62;97071.94;6323589;28;20437;-68
2023/03/24 06:06:44;;;;;;;7.60;3.95;;;;;;;21.59;30.65;97074.09;6323063;28;20529;-69
2023/03/24 06:09:51;;;;;;;9.25;3.95;;;;;;;21.04;29.69;97075.41;6322956;28;20050;-68
2023/03/24 06:12:55;;;;;;;8.65;4.25;;;;;;;19.32;31.58;97069.59;6321739;28;20048;-67
2023/03/24 06:15:59;;;;;;;8.20;4.35;;;;;;;18.62;33.32;97070.00;6323094;28;20040;-68
2023/03/24 06:19:05;;;;;;;8.85;4.15;;;;;;;21.74;28.69;97071.66;6322829;28;20040;-68
2023/03/24 06:22:09;;;;;;;6.88;3.65;;;;;;;23.39;26.40;97073.16;6321992;28;20468;-68
2023/03/24 06:25:15;;;;;;;9.05;3.72;;;;;;;23.99;25.50;97072.50;6323293;28;20036;-69
2023/03/24 06:28:16;;;;;;;8.98;3.85;;;;;;;25.07;23.79;97064.09;6322346;28;20264;-68
2023/03/24 06:31:22;;;;;;;9.10;3.25;;;;;;;26.17;22.59;97056.94;6322324;28;20127;-68
2023/03/24 06:34:31;;;;;;;7.20;3.95;;;;;;;27.30;21.09;97064.03;6322723;28;20055;-68
2023/03/24 06:37:36;;;;;;;6.43;2.75;;;;;;;27.82;20.64;97060.91;6322571;28;20040;-68
2023/03/24 06:40:38;;;;;;;6.22;3.30;;;;;;;29.09;19.79;97049.94;6322620;28;20040;-68
2023/03/24 06:43:41;;;;;;;9.38;3.38;;;;;;;29.88;18.56;97053.41;6322330;28;20441;-68
2023/03/24 06:46:44;;;;;;;4.63;2.97;;;;;;;29.81;18.68;97058.03;6322147;28;20464;-68
2023/03/24 06:49:48;;;;;;;4.35;2.72;;;;;;;30.08;18.56;97055.16;6322186;28;20044;-70
2023/03/24 06:52:53;;;;;;;7.82;2.67;;;;;;;29.38;18.46;97069.44;6322234;28;20036;-68
2023/03/24 06:55:54;;;;;;;6.75;2.95;;;;;;;29.02;19.11;97065.38;6321541;28;20429;-67
2023/03/24 06:58:56;;;;;;;4.35;2.50;;;;;;;29.38;18.31;97058.59;6320748;28;20044;-69
2023/03/24 07:01:58;;;;;;;4.03;2.22;;;;;;;29.03;18.42;97067.06;6321716;28;20048;-68
2023/03/24 07:05:08;;;;;;;8.02;2.50;;;;;;;28.31;18.99;97068.72;6321798;28;20498;-68
2023/03/24 07:08:12;;;;;;;4.15;1.80;;;;;;;27.74;19.36;97062.75;6322399;28;20479;-68
2023/03/24 07:11:16;;;;;;;5.22;2.20;;;;;;;27.19;19.94;97056.47;6322007;28;20052;-69
2023/03/24 07:14:25;;;;;;;5.18;2.47;;;;;;;27.38;19.84;97052.22;6321928;28;20357;-70
2023/03/24 07:17:31;;;;;;;5.07;2.40;;;;;;;27.82;19.34;97042.81;6321864;28;20040;-69
2023/03/24 07:20:38;;;;;;;6.75;2.30;;;;;;;27.91;19.12;97047.03;6321828;28;20043;-68
2023/03/24 07:23:39;;;;;;;5.65;2.50;;;;;;;27.60;19.17;97044.81;6320792;28;20047;-68
2023/03/24 07:26:49;;;;;;;6.70;2.50;;;;;;;28.26;19.00;97037.91;6319501;28;20044;-69
2023/03/24 07:29:50;;;;;;;5.35;2.42;;;;;;;29.38;17.81;97042.34;6321317;28;20040;-69
2023/03/24 07:32:55;;;;;;;7.70;2.60;;;;;;;29.85;17.33;97042.16;6321229;28;20044;-69
2023/03/24 07:35:56;;;;;;;;;;;;;;;31.49;16.77;97040.94;6320865;28;20052;-69
2023/03/24 07:39:00;;;;;;;5.63;2.22;;;;;;;31.44;16.14;97035.38;6321477;28;19919;-68
2023/03/24 07:42:01;;;;;;;5.03;2.15;;;;;;;30.89;16.20;97037.22;6320450;28;20071;-68
2023/03/24 07:45:09;;;;;;;6.55;1.90;;;;;;;29.55;16.82;97026.41;6321322;28;20047;-67
2023/03/24 07:48:13;;;;;;;3.17;1.98;;;;;;;28.48;17.95;97025.88;6321140;28;20421;-69
2023/03/24 07:51:18;;;;;;;2.92;2.22;;;;;;;28.03;18.11;97027.47;6320804;28;20063;-69
2023/03/24 07:54:20;;;;;;;7.15;2.70;;;;;;;27.74;18.64;97024.91;6320365;28;20197;-68
2023/03/24 07:57:22;;;;;;;7.05;3.10;;;;;;;28.17;18.46;97023.75;6320918;28;20040;-69
2023/03/24 08:00:23;;;;;;;3.90;2.38;;;;;;;28.49;17.97;97021.28;6320462;28;20044;-68
2023/03/24 08:03:30;;;;;;;5.50;2.60;;;;;;;28.73;17.51;97017.06;6320440;28;20109;-68
2023/03/24 08:06:34;;;;;;;6.85;3.22;;;;;;;29.07;17.45;97014.13;6320279;28;20048;-68
2023/03/24 08:09:40;;;;;;;5.93;2.67;;;;;;;28.63;17.32;97010.22;6320847;28;20040;-69
2023/03/24 08:12:41;;;;;;;6.75;2.45;;;;;;;28.77;17.68;97004.78;6320530;28;20043;-68
2023/03/24 08:15:45;;;;;;;8.70;2.85;;;;;;;28.92;17.37;97009.94;6320225;28;20040;-68
2023/03/24 08:18:51;;;;;;;5.20;2.42;;;;;;;29.09;17.11;97000.34;6320059;28;20047;-67
2023/03/24 08:21:58;;;;;;;7.25;2.55;;;;;;;29.65;17.00;97001.59;6320170;28;20044;-68
2023/03/24 08:24:59;;;;;;;6.22;2.47;;;;;;;29.99;16.11;96995.72;6319570;28;20054;-68
2023/03/24 08:28:01;;;;;;;5.97;2.72;;;;;;;30.47;16.05;96996.22;6319022;28;20044;-68
2023/03/24 08:31:03;;;;;;;3.58;2.40;;;;;;;30.39;16.14;96992.72;6319398;28;20420;-69
2023/03/24 08:34:05;;;;;;;8.25;3.25;;;;;;;30.15;16.52;96988.13;6319476;28;20040;-69
2023/03/24 08:37:12;;;;;;;7.60;2.80;;;;;;;30.88;15.83;96995.63;6319536;28;20513;-69
2023/03/24 08:40:23;;;;;;;5.78;2.72;;;;;;;30.40;15.86;96985.41;6318736;28;20047;-68
2023/03/24 08:43:30;;;;;;;4.32;2.10;;;;;;;30.34;16.11;96987.13;6319667;28;20047;-69
2023/03/24 08:46:32;;;;;;;7.75;2.50;;;;;;;29.68;16.45;96983.00;6319616;28;20036;-68
2023/03/24 08:49:36;;;;;;;6.73;2.80;;;;;;;30.19;16.09;96978.47;6319558;28;20047;-68
2023/03/24 08:52:37;;;;;;;5.50;2.58;;;;;;;29.63;16.30;96973.84;6319110;28;20044;-69
2023/03/24 08:55:46;;;;;;;8.35;2.67;;;;;;;28.76;17.08;96967.91;6319429;28;20414;-68
2023/03/24 08:58:50;;;;;;;2.50;2.22;;;;;;;27.75;17.97;96961.66;6318414;28;20048;-69
2023/03/24 09:01:51;;;;;;;6.03;2.90;;;;;;;27.62;17.88;96956.22;6318947;28;20052;-69
2023/03/24 09:04:56;;;;;;;6.45;3.15;;;;;;;27.27;18.23;96960.94;6318638;28;20421;-68
2023/03/24 09:08:02;;;;;;;11.20;4.20;;;;;;;28.15;17.51;96942.78;6319470;28;20444;-68
2023/03/24 09:11:12;;;;;;;8.05;3.95;;;;;;;28.47;17.24;96942.16;6318550;28;20146;-69
2023/03/24 09:14:16;;;;;;;9.30;3.53;;;;;;;27.81;17.69;96937.59;6319635;28;20078;-69
2023/03/24 09:17:18;;;;;;;6.30;3.40;;;;;;;26.88;18.67;96933.53;6318842;28;20047;-68
2023/03/24 09:20:20;;;;;;;5.03;3.60;;;;;;;27.14;18.47;96933.84;6322536;28;20166;-68
2023/03/24 09:23:24;;;;;;;4.93;3.13;;;;;;;27.03;18.71;96927.13;6327277;28;20476;-69
2023/03/24 09:26:25;;;;;;;4.80;2.90;;;;;;;26.46;19.22;96925.59;6325553;28;20078;-69
2023/03/24 09:29:26;;;;;;;7.45;3.03;;;;;;;25.69;19.97;96925.41;6326875;28;20506;-69
2023/03/24 09:32:30;;;;;;;5.07;2.70;;;;;;;25.53;19.73;96918.44;6327617;28;20546;-68
2023/03/24 09:35:31;;;;;;;4.50;2.60;;;;;;;24.72;20.81;96911.47;6327473;28;20032;-68
2023/03/24 09:38:33;;;;;;;4.60;2.65;;;;;;;25.03;20.51;96914.75;6326531;28;20063;-69
2023/03/24 09:41:38;;;;;;;5.00;2.90;;;;;;;25.09;20.28;96913.97;6326960;28;20044;-68
2023/03/24 09:44:43;;;;;;;6.40;2.80;;;;;;;24.25;21.35;96923.41;6327025;28;20062;-69
2023/03/24 09:48:04;;;;;;;6.65;2.38;;;;;;;23.93;21.45;96906.59;6327252;28;20036;-68
2023/03/24 09:51:19;;;;;;;7.13;3.28;;;;;;;24.29;21.50;96904.03;6326544;28;20074;-69
2023/03/24 09:54:39;;;;;;;7.38;3.22;;;;;;;23.65;21.75;96901.75;6325510;28;20035;-68
2023/03/24 09:57:45;;;;;;;4.88;2.50;;;;;;;23.06;22.75;96904.19;6327228;28;20501;-69
2023/03/24 10:00:47;;;;;;;7.93;2.97;;;;;;;23.40;22.35;96893.06;6327118;28;20058;-69
2023/03/24 10:03:55;;;;;;;5.45;3.05;;;;;;;23.26;22.44;96902.72;6327111;28;20044;-68
2023/03/24 10:07:33;;;;;;;4.03;2.08;;;;;;;23.54;22.44;96894.97;6327452;28;20059;-70
2023/03/24 10:10:48;;;;;;;7.35;2.85;;;;;;;23.46;22.43;96891.50;6325552;28;20044;-68
2023/03/24 10:14:15;;;;;;;6.60;2.75;;;;;;;24.12;21.57;96897.16;6327067;28;20077;-68
2023/03/24 10:17:42;;;;;;;6.20;2.47;;;;;;;23.89;21.84;96899.88;6326658;28;20374;-69
2023/03/24 10:20:51;;;;;;;8.07;3.20;;;;;;;23.22;22.86;96890.69;6326694;28;20047;-69
2023/03/24 10:24:41;;;;;;;5.22;2.72;;;;;;;22.34;23.71;96894.44;6326149;28;20059;-68
2023/03/24 10:27:50;;;;;;;6.90;2.80;;;;;;;21.21;25.03;96883.63;6307741;28;20068;-69
2023/03/24 10:30:56;;;;;;;4.10;2.63;;;;;;;20.81;25.58;96881.72;6325796;28;20040;-68
2023/03/24 10:34:02;;;;;;;7.80;2.55;;;;;;;20.60;25.73;96880.31;6321924;28;20059;-69
2023/03/24 10:37:08;;;;;;;4.32;2.80;;;;;;;20.72;25.65;96877.34;6322964;28;20040;-69
2023/03/24 10:40:16;;;;;;;5.50;1.98;;;;;;;20.87;25.72;96875.72;6322920;28;20460;-68
2023/03/24 10:43:22;;;;;;;6.28;2.65;;;;;;;20.67;25.66;96877.00;6322530;28;20039;-68
2023/03/24 10:46:26;;;;;;;6.20;2.55;;;;;;;20.08;26.53;96869.72;6322347;28;20040;-68
2023/03/24 10:49:27;;;;;;;5.63;3.00;;;;;;;20.27;26.39;96873.13;6321532;28;20464;-68
2023/03/24 10:52:46;;;;;;;9.52;3.03;;;;;;;19.69;27.04;96871.97;6322036;28;20189;-70
2023/03/24 10:55:50;;;;;;;6.32;2.85;;;;;;;18.86;28.12;96866.91;6322204;28;20047;-69
2023/03/24 10:58:51;;;;;;;5.75;2.30;;;;;;;18.23;28.96;96875.66;6321723;28;20105;-68
2023/03/24 11:02:04;;;;;;;4.00;2.47;;;;;;;18.19;29.37;96868.94;6322369;28;20040;-69
2023/03/24 11:05:21;;;;;;;8.02;2.88;;;;;;;18.20;29.37;96865.28;6322627;28;20036;-68
2023/03/24 11:08:43;;;;;;;3.95;2.50;;;;;;;18.75;28.85;96862.63;6322489;28;20044;-68
2023/03/24 11:11:45;;;;;;;5.63;2.53;;;;;;;18.78;28.40;96865.00;6322229;28;20032;-69
2023/03/24 11:14:49;;;;;;;4.95;2.60;;;;;;;17.92;29.60;96862.59;6322001;28;20047;-68
2023/03/24 11:18:09;;;;;;;7.97;2.63;;;;;;;17.42;30.46;96862.84;6321619;28;20043;-68
2023/03/24 11:21:13;;;;;;;5.13;2.85;;;;;;;16.67;31.38;96863.50;6321622;28;20071;-68
2023/03/24 11:24:19;;;;;;;4.90;2.58;;;;;;;16.22;32.30;96863.94;6321682;28;20043;-69
2023/03/24 11:27:24;;;;;;;6.50;2.80;;;;;;;15.75;33.16;96850.34;6321179;28;20054;-68
2023/03/24 11:30:53;;;;;;;5.97;1.92;;;;;;;15.66;33.31;96855.44;6321517;28;20134;-69
2023/03/24 11:34:02;;;;;;;6.72;2.65;;;;;;;15.17;34.13;96864.91;6321267;28;20413;-68
2023/03/24 11:37:30;;;;;;;6.85;3.33;;;;;;;15.03;34.50;96851.94;6320026;28;20044;-68
2023/03/24 11:40:34;;;;;;;8.00;2.88;;;;;;;14.99;34.48;96842.56;6321122;28;20047;-68
2023/03/24 11:43:36;;;;;;;10.95;3.83;;;;;;;15.23;34.19;96851.13;6320335;28;20040;-69
2023/03/24 11:46:41;;;;;;;6.15;3.10;;;;;;;14.77;34.92;96844.34;6319587;28;20048;-68
2023/03/24 11:49:50;;;;;;;4.60;2.60;;;;;;;14.58;35.12;96846.84;6320409;28;20048;-69
2023/03/24 11:53:06;;;;;;;5.93;2.83;;;;;;;14.07;36.07;96850.88;6320248;28;20063;-68
2023/03/24 11:56:36;;;;;;;5.82;2.50;;;;;;;13.94;36.57;96847.50;6320721;28;20051;-68
2023/03/24 11:59:56;;;;;;;9.82;2.90;;;;;;;14.05;36.38;96852.78;6315017;28;20051;-68
2023/03/24 12:03:11;;;;;;;5.97;2.67;;;;;;;14.01;36.58;96855.78;6319743;28;20050;-69
2023/03/24 12:06:34;;;;;;;5.75;2.83;;;;;;;14.11;36.15;96841.69;6319842;28;20048;-69
2023/03/24 12:10:11;;;;;;;6.30;2.50;;;;;;;14.08;36.30;96839.31;6319881;28;20047;-69
2023/03/24 12:13:34;;;;;;;6.88;2.60;;;;;;;14.44;35.74;96841.78;6300761;28;20076;-69
2023/03/24 12:17:10;;;;;;;4.25;2.30;;;;;;;14.22;35.77;96846.16;6320092;28;20541;-68
2023/03/24 12:20:23;;;;;;;5.80;2.88;;;;;;;13.58;36.94;96837.97;6320713;28;20044;-68
2023/03/24 12:23:27;;;;;;;4.35;2.22;;;;;;;13.19;37.46;96837.41;6320295;28;20040;-68
2023/03/24 12:26:33;;;;;;;7.43;2.92;;;;;;;12.67;38.75;96838.66;6319965;28;20048;-68
2023/03/24 12:30:09;;;;;;;4.70;2.70;;;;;;;12.43;39.25;96834.25;6320169;28;20040;-69
2023/03/24 12:33:43;;;;;;;4.57;2.15;;;;;;;12.19;39.69;96825.47;6318266;28;20051;-67
2023/03/24 12:36:52;;;;;;;;;;;;;;;12.00;39.99;96825.94;6320434;28;20513;-68
2023/03/24 12:40:24;;;;;;;2.75;1.90;;;;;;;11.37;41.12;96819.75;6320004;28;20483;-68
2023/03/24 12:43:58;;;;;;;4.45;2.45;;;;;;;11.26;41.70;96820.50;6319857;28;20044;-68
2023/03/24 12:47:27;;;;;;;7.03;2.65;;;;;;;10.83;42.50;96818.13;6319922;28;20047;-68
2023/03/24 12:50:47;;;;;;;4.72;2.20;;;;;;;10.68;42.81;96825.25;6919164;22;20149;-69
2023/03/24 12:54:00;;;;;;;6.88;2.50;;;;;;;10.65;42.96;96809.69;6294093;28;20036;-70
2023/03/24 12:57:12;;;;;;;4.18;2.65;;;;;;;10.51;43.10;96802.69;6294384;28;20047;-70
2023/03/24 13:00:27;;;;;;;4.22;2.17;;;;;;;10.41;43.72;96811.28;6294419;28;20049;-69
2023/03/24 13:03:44;;;;;;;3.53;1.75;;;;;;;10.27;43.91;96805.13;6294671;28;20044;-70
2023/03/24 13:07:17;;;;;;;7.07;2.92;;;;;;;10.01;44.86;96803.31;6294435;28;20501;-70
2023/03/24 13:10:39;;;;;;;3.80;2.35;;;;;;;9.55;45.45;96807.03;6278842;28;20056;-69
2023/03/24 13:13:43;;;;;;;7.05;3.58;;;;;;;9.35;46.10;96813.50;6294249;28;20393;-69
2023/03/24 13:16:48;;;;;;;6.38;3.25;;;;;;;9.23;46.35;96811.63;6294238;28;20044;-71
2023/03/24 13:19:56;;;;;;;3.78;2.60;;;;;;;9.25;46.53;96809.75;6294813;28;20041;-70
2023/03/24 13:23:42;;;;;;;4.80;2.45;;;;;;;9.01;47.03;96803.34;6294357;28;20048;-70
2023/03/24 13:26:55;;;;;;;4.57;2.00;;;;;;;8.77;47.85;96809.09;6294486;28;20044;-69
2023/03/24 13:30:35;;;;;;;6.85;3.00;;;;;;;8.44;48.77;96802.28;6293981;28;20036;-69
2023/03/24 13:33:43;;;;;;;2.85;1.63;;;;;;;8.15;49.43;96800.41;6294330;28;20131;-70
2023/03/24 13:36:54;;;;;;;7.60;3.50;;;;;;;7.83;50.51;96800.44;6293828;28;20040;-69
2023/03/24 13:40:05;;;;;;;4.15;3.03;;;;;;;7.45;51.15;96790.28;6293988;28;20044;-69
2023/03/24 13:43:12;;;;;;;4.50;2.83;;;;;;;7.42;51.78;96807.00;6293754;28;20033;-68
2023/03/24 13:46:22;;;;;;;3.90;2.70;;;;;;;6.96;52.90;96795.47;6293906;28;20487;-69
2023/03/24 13:49:24;;;;;;;6.63;2.97;;;;;;;6.76;53.31;96812.19;6293963;28;20490;-70
2023/03/24 13:52:36;;;;;;;4.85;2.97;;;;;;;6.58;54.18;96798.28;6293872;28;20408;-68
2023/03/24 13:55:39;;;;;;;5.75;2.63;;;;;;;6.34;54.34;96809.94;6293791;28;20489;-69
2023/03/24 13:59:07;;;;;;;6.60;3.10;;;;;;;6.37;54.98;96801.94;6294081;28;20033;-69
2023/03/24 14:02:19;;;;;;;2.97;1.95;;;;;;;6.12;55.74;96805.75;6293623;28;20044;-68
2023/03/24 14:05:25;;;;;;;3.65;2.33;;;;;;;5.88;56.34;96809.50;6293834;28;20036;-69
2023/03/24 14:08:40;;;;;;;4.60;2.55;;;;;;;5.68;56.76;96800.00;6298386;28;20039;-71
2023/03/24 14:11:48;;;;;;;4.88;1.65;;;;;;;5.71;56.99;96820.72;6298111;28;20059;-70
2023/03/24 14:15:28;;;;;;;6.40;2.60;;;;;;;5.40;57.53;96812.53;6297783;28;20044;-70
2023/03/24 14:18:33;;;;;;;5.03;2.25;;;;;;;5.32;58.29;96804.22;6273600;28;20044;-69
2023/03/24 14:21:42;;;;;;;1.92;1.73;;;;;;;5.29;58.40;96809.56;6297911;28;20508;-68
2023/03/24 14:24:46;;;;;;;4.75;2.83;;;;;;;5.23;58.85;96799.41;6297827;28;20173;-69
2023/03/24 14:27:51;;;;;;;5.45;2.30;;;;;;;5.04;59.09;96803.72;6297521;28;20485;-69
2023/03/24 14:31:08;;;;;;;2.25;1.88;;;;;;;4.97;59.26;96802.31;6297247;28;20044;-70
2023/03/24 14:34:20;;;;;;;8.43;3.78;;;;;;;4.84;59.90;96808.09;6297203;28;20036;-69
2023/03/24 14:37:26;;;;;;;5.40;3.28;;;;;;;4.83;59.92;96803.75;6297485;28;20032;-69
2023/03/24 14:41:03;;;;;;;6.78;3.40;;;;;;;4.66;60.80;96808.84;6297462;28;20036;-69
2023/03/24 14:44:07;;;;;;;5.55;3.40;;;;;;;4.56;60.45;96802.31;6278543;28;20048;-70
2023/03/24 14:47:09;;;;;;;7.43;3.30;;;;;;;4.56;60.94;96810.13;6297135;28;20385;-69
2023/03/24 14:50:24;;;;;;;6.38;3.58;;;;;;;4.45;61.43;96815.81;6296875;28;20057;-70
2023/03/24 14:53:25;;;;;;;7.75;3.17;;;;;;;4.36;61.76;96811.84;6297277;28;20489;-69
2023/03/24 14:56:38;;;;;;;6.40;3.80;;;;;;;4.26;61.86;96813.13;6297330;28;20044;-69
2023/03/24 15:00:16;;;;;;;6.78;3.60;;;;;;;4.20;62.24;96805.56;6297252;28;20045;-69
2023/03/24 15:03:32;;;;;;;7.40;4.05;;;;;;;3.99;62.80;96808.13;6297165;28;20040;-69